Shelby — WCV6157 — position and weather

sailwx.info

Track history (hours):
 
Tides and Currents Weather Stations Pressure Air Temp Water Temp Dewpoint Dewpoint Depression Visibility Wind Speed Wind Dir Waves Ship Positions

Shelby

Owner: WEEKS MARINE, INC., CRANFORD, NJ. More information available from US FCC via Universal Licensing System and Coast Guard Vessel Documentation Center.

Last reported at 2015-Sep-02 03:33 UTC. Time now 2015-Sep-02 04:23 UTC.
Position N 40°31' W 074°15'.

Length 22 m; draft 3.1 m.

Type: Tug. MMSI: 366902344.

Date/timePositionNaut miles runAvg speedWind from/ knotsBaromVisibWave heightAir tempDewpointWater temp
2015-Sep-02 03:33N 40°31' W 074°15'0 0.0
2015-Sep-02 02:33N 40°31' W 074°15'0 0.0
2015-Sep-02 01:33N 40°31' W 074°15'0 0.0
2015-Sep-02 00:33N 40°31' W 074°15'  
2015-Aug-30 17:33N 40°37' W 074°12'7 6.8
2015-Aug-30 16:34N 40°41' W 074°04'0 0.0
2015-Aug-30 15:34N 40°41' W 074°04'0 0.0
2015-Aug-30 14:34N 40°41' W 074°04'0 0.0
2015-Aug-30 13:34N 40°41' W 074°04'0 0.0
2015-Aug-30 12:34N 40°41' W 074°04'0 0.1
2015-Aug-30 11:34N 40°41' W 074°05'0 0.0
2015-Aug-30 10:34N 40°41' W 074°05'0 0.0
2015-Aug-30 09:34N 40°41' W 074°05'0 0.0
2015-Aug-30 08:34N 40°41' W 074°05'0 0.0
2015-Aug-30 07:34N 40°41' W 074°05'0 0.0
2015-Aug-30 06:34N 40°41' W 074°05'0 0.0
2015-Aug-30 05:34N 40°41' W 074°05'0 0.0
2015-Aug-30 04:34N 40°41' W 074°05'0 0.0
2015-Aug-30 03:34N 40°41' W 074°05'0 0.0
2015-Aug-30 02:34N 40°41' W 074°05'0 0.0
2015-Aug-30 01:34N 40°41' W 074°05'0 0.0
2015-Aug-30 00:34N 40°41' W 074°05'0 0.0
2015-Aug-29 23:34N 40°41' W 074°05'0 0.0
2015-Aug-29 22:33N 40°41' W 074°05'0 0.0
2015-Aug-29 21:34N 40°41' W 074°05'0 0.2
2015-Aug-29 20:34N 40°41' W 074°04'11 9.6
2015-Aug-29 19:27N 40°30' W 074°01'4110.5
2015-Aug-29 15:32N 39°49' W 074°03'1010.5
2015-Aug-29 14:32N 39°39' W 074°07'2210.9
2015-Aug-29 12:33N 39°21' W 074°21'3410.7
2015-Aug-29 09:22N 38°54' W 074°48'8 9.7
2015-Aug-29 08:34N 38°49' W 074°56'9 9.1
2015-Aug-29 07:33N 38°54' W 075°05'1212.0
2015-Aug-29 06:34N 39°05' W 075°11'1313.0
2015-Aug-29 05:34N 39°16' W 075°21'1212.1
2015-Aug-29 04:33N 39°25' W 075°31'8 8.2
2015-Aug-29 03:34N 39°33' W 075°33'3 3.1
2015-Aug-29 02:34N 39°36' W 075°34'4 3.8
2015-Aug-29 01:34N 39°40' W 075°33'4 4.4
2015-Aug-29 00:33N 39°43' W 075°30'5 5.1
2015-Aug-28 23:33N 39°48' W 075°26'7 7.1
2015-Aug-28 22:33N 39°51' W 075°18'7 7.3
2015-Aug-28 21:34N 39°53' W 075°09'4 4.4
2015-Aug-28 20:33N 39°57' W 075°08'0 0.1
2015-Aug-28 19:34N 39°57' W 075°08'0 0.0
2015-Aug-28 18:34N 39°57' W 075°08'0 0.0
2015-Aug-28 17:34N 39°57' W 075°08'0 0.0
2015-Aug-28 16:34N 39°57' W 075°08'0 0.0
2015-Aug-28 15:33N 39°57' W 075°08'0 0.0
2015-Aug-28 14:34N 39°57' W 075°08'0 0.0
2015-Aug-28 13:33N 39°57' W 075°08'0 0.0
2015-Aug-28 12:34N 39°57' W 075°08'0 0.0
2015-Aug-28 11:34N 39°57' W 075°08'0 0.0
2015-Aug-28 10:33N 39°57' W 075°08'0 0.0
2015-Aug-28 09:34N 39°57' W 075°08'0 0.0
2015-Aug-28 08:34N 39°57' W 075°08'0 0.0
2015-Aug-28 07:34N 39°57' W 075°08'0 0.0
2015-Aug-28 06:34N 39°57' W 075°08'0 0.0
2015-Aug-28 05:34N 39°57' W 075°08'0 0.0
2015-Aug-28 04:34N 39°57' W 075°08'0 0.0
2015-Aug-28 03:34N 39°57' W 075°08'0 0.0
2015-Aug-28 02:34N 39°57' W 075°08'0 0.0
2015-Aug-28 01:34N 39°57' W 075°08'0 0.0
2015-Aug-28 00:34N 39°57' W 075°08'0 0.0
2015-Aug-27 23:33N 39°57' W 075°08'0 0.0
2015-Aug-27 22:34N 39°57' W 075°08'0 0.0
2015-Aug-27 21:34N 39°57' W 075°08'0 0.0
2015-Aug-27 20:34N 39°57' W 075°08'0 0.0
2015-Aug-27 19:33N 39°57' W 075°08'0 0.0
2015-Aug-27 18:33N 39°57' W 075°08'0 0.0
2015-Aug-27 17:34N 39°57' W 075°08'0 0.0
2015-Aug-27 16:33N 39°57' W 075°08'0 0.0
2015-Aug-27 15:34N 39°57' W 075°08'0 0.0
2015-Aug-27 14:34N 39°57' W 075°08'0 0.0
2015-Aug-27 13:34N 39°57' W 075°08'0 0.0
2015-Aug-27 12:34N 39°57' W 075°08'0 0.0
2015-Aug-27 11:33N 39°57' W 075°08'0 0.0
2015-Aug-27 10:34N 39°57' W 075°08'0 0.0
2015-Aug-27 09:34N 39°57' W 075°08'0 0.0
2015-Aug-27 08:34N 39°57' W 075°08'0 0.0
2015-Aug-27 07:34N 39°57' W 075°08'0 0.0
2015-Aug-27 06:34N 39°57' W 075°08'0 0.0
2015-Aug-27 05:33N 39°57' W 075°08'0 0.0
2015-Aug-27 04:34N 39°57' W 075°08'0 0.0
2015-Aug-27 03:34N 39°57' W 075°08'0 0.0
2015-Aug-27 02:34N 39°57' W 075°08'0 0.0
2015-Aug-27 01:34N 39°57' W 075°08'0 0.0
2015-Aug-27 00:34N 39°57' W 075°08'0 0.0
2015-Aug-26 23:34N 39°57' W 075°08'0 0.0
2015-Aug-26 22:34N 39°57' W 075°08'0 0.0
2015-Aug-26 21:34N 39°57' W 075°08'0 0.0
2015-Aug-26 20:34N 39°57' W 075°08'0 0.0
2015-Aug-26 19:33N 39°57' W 075°08'0 0.0
2015-Aug-26 18:34N 39°57' W 075°08'0 0.0
2015-Aug-26 17:34N 39°57' W 075°08'0 0.1
2015-Aug-26 16:34N 39°57' W 075°08'0 0.0
2015-Aug-26 15:34N 39°57' W 075°08'0 0.0
2015-Aug-26 14:34N 39°57' W 075°08'0 0.0
2015-Aug-26 13:34N 39°57' W 075°08'0 0.0
2015-Aug-26 12:34N 39°57' W 075°08'0 0.0
2015-Aug-26 11:34N 39°57' W 075°08'0 0.0
2015-Aug-26 10:33N 39°57' W 075°08'0 0.0
2015-Aug-26 09:34N 39°57' W 075°08'0 0.0
2015-Aug-26 08:34N 39°57' W 075°08'0 0.0
2015-Aug-26 07:34N 39°57' W 075°08'0 0.0
2015-Aug-26 06:34N 39°57' W 075°08'0 0.0
2015-Aug-26 05:33N 39°57' W 075°08'0 0.0
2015-Aug-26 04:34N 39°57' W 075°08'0 0.0
2015-Aug-26 03:34N 39°57' W 075°08'0 0.0
2015-Aug-26 02:34N 39°57' W 075°08'0 0.0
2015-Aug-26 01:34N 39°57' W 075°08'0 0.0
2015-Aug-26 00:34N 39°57' W 075°08'0 0.0
2015-Aug-25 23:33N 39°57' W 075°08'0 0.0
2015-Aug-25 22:33N 39°57' W 075°08'0 0.0
2015-Aug-25 21:34N 39°57' W 075°08'0 0.0
2015-Aug-25 20:34N 39°57' W 075°08'0 0.0
2015-Aug-25 19:34N 39°57' W 075°08'0 0.0
2015-Aug-25 18:33N 39°57' W 075°08'0 0.0
2015-Aug-25 17:33N 39°57' W 075°08'0 0.0
2015-Aug-25 16:34N 39°57' W 075°08'0 0.0
2015-Aug-25 15:34N 39°57' W 075°08'0 0.0
2015-Aug-25 14:34N 39°57' W 075°08'0 0.0
2015-Aug-25 13:34N 39°57' W 075°08'0 0.0
2015-Aug-25 12:34N 39°57' W 075°08'0 0.0
2015-Aug-25 11:34N 39°57' W 075°08'0 0.0
2015-Aug-25 10:33N 39°57' W 075°08'0 0.0
2015-Aug-25 09:34N 39°57' W 075°08'0 0.0
2015-Aug-25 08:34N 39°57' W 075°08'0 0.0
2015-Aug-25 07:34N 39°57' W 075°08'0 0.0
2015-Aug-25 06:34N 39°57' W 075°08'0 0.0
2015-Aug-25 05:33N 39°57' W 075°08'0 0.0
2015-Aug-25 04:34N 39°57' W 075°08'0 0.0
2015-Aug-25 03:34N 39°57' W 075°08'0 0.0
2015-Aug-25 02:34N 39°57' W 075°08'0 0.0
2015-Aug-25 01:34N 39°57' W 075°08'0 0.0
2015-Aug-25 00:33N 39°57' W 075°08'0 0.0
2015-Aug-24 23:34N 39°57' W 075°08'0 0.0
2015-Aug-24 22:34N 39°57' W 075°08'0 0.0
2015-Aug-24 21:33N 39°57' W 075°08'4 3.9
2015-Aug-24 20:34N 39°53' W 075°08'9 9.0
2015-Aug-24 19:34N 39°51' W 075°19'3 2.5
2015-Aug-24 18:34N 39°51' W 075°16'2 1.6
2015-Aug-24 17:34N 39°51' W 075°14'0 0.0
2015-Aug-24 16:34N 39°51' W 075°14'0 0.0
2015-Aug-24 15:34N 39°51' W 075°14'0 0.0
2015-Aug-24 14:33N 39°51' W 075°14'0 0.0
2015-Aug-24 13:34N 39°51' W 075°14'0 0.4
2015-Aug-24 12:34N 39°51' W 075°14'0 0.0
2015-Aug-24 11:34N 39°51' W 075°14'0 0.0
2015-Aug-24 10:34N 39°51' W 075°14'0 0.0
2015-Aug-24 09:33N 39°51' W 075°14'0 0.0
2015-Aug-24 08:34N 39°51' W 075°14'0 0.0
2015-Aug-24 07:33N 39°51' W 075°14'0 0.0
2015-Aug-24 06:33N 39°51' W 075°14'0 0.0
2015-Aug-24 05:34N 39°51' W 075°14'0 0.0
2015-Aug-24 04:34N 39°51' W 075°14'0 0.0
2015-Aug-24 03:34N 39°51' W 075°14'0 0.0
2015-Aug-24 02:33N 39°51' W 075°14'0 0.0
2015-Aug-24 01:34N 39°51' W 075°14'7 6.5
2015-Aug-24 00:34N 39°50' W 075°22'0 0.3
2015-Aug-23 23:34N 39°50' W 075°22'4 4.4
2015-Aug-23 22:34N 39°47' W 075°27'8 8.0
2015-Aug-23 21:34N 39°40' W 075°32'7 7.0
2015-Aug-23 20:34N 39°33' W 075°32'7 7.4
2015-Aug-23 19:34N 39°26' W 075°32'8 8.2
2015-Aug-23 18:34N 39°20' W 075°25'8 7.8
2015-Aug-23 17:34N 39°14' W 075°18'15 7.4
2015-Aug-23 15:33N 39°01' W 075°09'7 7.0
2015-Aug-23 14:33N 38°54' W 075°05'6 6.1
2015-Aug-23 13:34N 38°49' W 075°02'6 6.2
2015-Aug-23 12:33N 38°49' W 074°54'7 6.4
2015-Aug-23 11:31N 38°54' W 074°48'7 6.9
2015-Aug-23 10:33N 38°60' W 074°44'7 6.9
2015-Aug-23 09:33N 39°06' W 074°40'28 6.9
2015-Aug-23 05:32N 39°26' W 074°15'7 7.0
2015-Aug-23 04:33N 39°32' W 074°11'  
Track history (hours):
 
Tides and Currents Weather Stations Pressure Air Temp Water Temp Dewpoint Dewpoint Depression Visibility Wind Speed Wind Dir Waves Ship Positions

Shelby

Owner: WEEKS MARINE, INC., CRANFORD, NJ. More information available from US FCC via Universal Licensing System and Coast Guard Vessel Documentation Center.

Last reported at 2015-Sep-02 03:33 UTC. Time now 2015-Sep-02 04:23 UTC.
Position N 40°31' W 074°15'.

Length 22 m; draft 3.1 m.

Type: Tug. MMSI: 366902344.

Date/timePositionNaut miles runAvg speedWind from/ knotsBaromVisibWave heightAir tempDewpointWater temp
2015-Sep-02 03:33N 40°31' W 074°15'0 0.0
2015-Sep-02 02:33N 40°31' W 074°15'0 0.0
2015-Sep-02 01:33N 40°31' W 074°15'0 0.0
2015-Sep-02 00:33N 40°31' W 074°15'  
2015-Aug-30 17:33N 40°37' W 074°12'7 6.8
2015-Aug-30 16:34N 40°41' W 074°04'0 0.0
2015-Aug-30 15:34N 40°41' W 074°04'0 0.0
2015-Aug-30 14:34N 40°41' W 074°04'0 0.0
2015-Aug-30 13:34N 40°41' W 074°04'0 0.0
2015-Aug-30 12:34N 40°41' W 074°04'0 0.1
2015-Aug-30 11:34N 40°41' W 074°05'0 0.0
2015-Aug-30 10:34N 40°41' W 074°05'0 0.0
2015-Aug-30 09:34N 40°41' W 074°05'0 0.0
2015-Aug-30 08:34N 40°41' W 074°05'0 0.0
2015-Aug-30 07:34N 40°41' W 074°05'0 0.0
2015-Aug-30 06:34N 40°41' W 074°05'0 0.0
2015-Aug-30 05:34N 40°41' W 074°05'0 0.0
2015-Aug-30 04:34N 40°41' W 074°05'0 0.0
2015-Aug-30 03:34N 40°41' W 074°05'0 0.0
2015-Aug-30 02:34N 40°41' W 074°05'0 0.0
2015-Aug-30 01:34N 40°41' W 074°05'0 0.0
2015-Aug-30 00:34N 40°41' W 074°05'0 0.0
2015-Aug-29 23:34N 40°41' W 074°05'0 0.0
2015-Aug-29 22:33N 40°41' W 074°05'0 0.0
2015-Aug-29 21:34N 40°41' W 074°05'0 0.2
2015-Aug-29 20:34N 40°41' W 074°04'11 9.6
2015-Aug-29 19:27N 40°30' W 074°01'4110.5
2015-Aug-29 15:32N 39°49' W 074°03'1010.5
2015-Aug-29 14:32N 39°39' W 074°07'2210.9
2015-Aug-29 12:33N 39°21' W 074°21'3410.7
2015-Aug-29 09:22N 38°54' W 074°48'8 9.7
2015-Aug-29 08:34N 38°49' W 074°56'9 9.1
2015-Aug-29 07:33N 38°54' W 075°05'1212.0
2015-Aug-29 06:34N 39°05' W 075°11'1313.0
2015-Aug-29 05:34N 39°16' W 075°21'1212.1
2015-Aug-29 04:33N 39°25' W 075°31'8 8.2
2015-Aug-29 03:34N 39°33' W 075°33'3 3.1
2015-Aug-29 02:34N 39°36' W 075°34'4 3.8
2015-Aug-29 01:34N 39°40' W 075°33'4 4.4
2015-Aug-29 00:33N 39°43' W 075°30'5 5.1
2015-Aug-28 23:33N 39°48' W 075°26'7 7.1
2015-Aug-28 22:33N 39°51' W 075°18'7 7.3
2015-Aug-28 21:34N 39°53' W 075°09'4 4.4
2015-Aug-28 20:33N 39°57' W 075°08'0 0.1
2015-Aug-28 19:34N 39°57' W 075°08'0 0.0
2015-Aug-28 18:34N 39°57' W 075°08'0 0.0
2015-Aug-28 17:34N 39°57' W 075°08'0 0.0
2015-Aug-28 16:34N 39°57' W 075°08'0 0.0
2015-Aug-28 15:33N 39°57' W 075°08'0 0.0
2015-Aug-28 14:34N 39°57' W 075°08'0 0.0
2015-Aug-28 13:33N 39°57' W 075°08'0 0.0
2015-Aug-28 12:34N 39°57' W 075°08'0 0.0
2015-Aug-28 11:34N 39°57' W 075°08'0 0.0
2015-Aug-28 10:33N 39°57' W 075°08'0 0.0
2015-Aug-28 09:34N 39°57' W 075°08'0 0.0
2015-Aug-28 08:34N 39°57' W 075°08'0 0.0
2015-Aug-28 07:34N 39°57' W 075°08'0 0.0
2015-Aug-28 06:34N 39°57' W 075°08'0 0.0
2015-Aug-28 05:34N 39°57' W 075°08'0 0.0
2015-Aug-28 04:34N 39°57' W 075°08'0 0.0
2015-Aug-28 03:34N 39°57' W 075°08'0 0.0
2015-Aug-28 02:34N 39°57' W 075°08'0 0.0
2015-Aug-28 01:34N 39°57' W 075°08'0 0.0
2015-Aug-28 00:34N 39°57' W 075°08'0 0.0
2015-Aug-27 23:33N 39°57' W 075°08'0 0.0
2015-Aug-27 22:34N 39°57' W 075°08'0 0.0
2015-Aug-27 21:34N 39°57' W 075°08'0 0.0
2015-Aug-27 20:34N 39°57' W 075°08'0 0.0
2015-Aug-27 19:33N 39°57' W 075°08'0 0.0
2015-Aug-27 18:33N 39°57' W 075°08'0 0.0
2015-Aug-27 17:34N 39°57' W 075°08'0 0.0
2015-Aug-27 16:33N 39°57' W 075°08'0 0.0
2015-Aug-27 15:34N 39°57' W 075°08'0 0.0
2015-Aug-27 14:34N 39°57' W 075°08'0 0.0
2015-Aug-27 13:34N 39°57' W 075°08'0 0.0
2015-Aug-27 12:34N 39°57' W 075°08'0 0.0
2015-Aug-27 11:33N 39°57' W 075°08'0 0.0
2015-Aug-27 10:34N 39°57' W 075°08'0 0.0
2015-Aug-27 09:34N 39°57' W 075°08'0 0.0
2015-Aug-27 08:34N 39°57' W 075°08'0 0.0
2015-Aug-27 07:34N 39°57' W 075°08'0 0.0
2015-Aug-27 06:34N 39°57' W 075°08'0 0.0
2015-Aug-27 05:33N 39°57' W 075°08'0 0.0
2015-Aug-27 04:34N 39°57' W 075°08'0 0.0
2015-Aug-27 03:34N 39°57' W 075°08'0 0.0
2015-Aug-27 02:34N 39°57' W 075°08'0 0.0
2015-Aug-27 01:34N 39°57' W 075°08'0 0.0
2015-Aug-27 00:34N 39°57' W 075°08'0 0.0
2015-Aug-26 23:34N 39°57' W 075°08'0 0.0
2015-Aug-26 22:34N 39°57' W 075°08'0 0.0
2015-Aug-26 21:34N 39°57' W 075°08'0 0.0
2015-Aug-26 20:34N 39°57' W 075°08'0 0.0
2015-Aug-26 19:33N 39°57' W 075°08'0 0.0
2015-Aug-26 18:34N 39°57' W 075°08'0 0.0
2015-Aug-26 17:34N 39°57' W 075°08'0 0.1
2015-Aug-26 16:34N 39°57' W 075°08'0 0.0
2015-Aug-26 15:34N 39°57' W 075°08'0 0.0
2015-Aug-26 14:34N 39°57' W 075°08'0 0.0
2015-Aug-26 13:34N 39°57' W 075°08'0 0.0
2015-Aug-26 12:34N 39°57' W 075°08'0 0.0
2015-Aug-26 11:34N 39°57' W 075°08'0 0.0
2015-Aug-26 10:33N 39°57' W 075°08'0 0.0
2015-Aug-26 09:34N 39°57' W 075°08'0 0.0
2015-Aug-26 08:34N 39°57' W 075°08'0 0.0
2015-Aug-26 07:34N 39°57' W 075°08'0 0.0
2015-Aug-26 06:34N 39°57' W 075°08'0 0.0
2015-Aug-26 05:33N 39°57' W 075°08'0 0.0
2015-Aug-26 04:34N 39°57' W 075°08'0 0.0
2015-Aug-26 03:34N 39°57' W 075°08'0 0.0
2015-Aug-26 02:34N 39°57' W 075°08'0 0.0
2015-Aug-26 01:34N 39°57' W 075°08'0 0.0
2015-Aug-26 00:34N 39°57' W 075°08'0 0.0
2015-Aug-25 23:33N 39°57' W 075°08'0 0.0
2015-Aug-25 22:33N 39°57' W 075°08'0 0.0
2015-Aug-25 21:34N 39°57' W 075°08'0 0.0
2015-Aug-25 20:34N 39°57' W 075°08'0 0.0
2015-Aug-25 19:34N 39°57' W 075°08'0 0.0
2015-Aug-25 18:33N 39°57' W 075°08'0 0.0
2015-Aug-25 17:33N 39°57' W 075°08'0 0.0
2015-Aug-25 16:34N 39°57' W 075°08'0 0.0
2015-Aug-25 15:34N 39°57' W 075°08'0 0.0
2015-Aug-25 14:34N 39°57' W 075°08'0 0.0
2015-Aug-25 13:34N 39°57' W 075°08'0 0.0
2015-Aug-25 12:34N 39°57' W 075°08'0 0.0
2015-Aug-25 11:34N 39°57' W 075°08'0 0.0
2015-Aug-25 10:33N 39°57' W 075°08'0 0.0
2015-Aug-25 09:34N 39°57' W 075°08'0 0.0
2015-Aug-25 08:34N 39°57' W 075°08'0 0.0
2015-Aug-25 07:34N 39°57' W 075°08'0 0.0
2015-Aug-25 06:34N 39°57' W 075°08'0 0.0
2015-Aug-25 05:33N 39°57' W 075°08'0 0.0
2015-Aug-25 04:34N 39°57' W 075°08'0 0.0
2015-Aug-25 03:34N 39°57' W 075°08'0 0.0
2015-Aug-25 02:34N 39°57' W 075°08'0 0.0
2015-Aug-25 01:34N 39°57' W 075°08'0 0.0
2015-Aug-25 00:33N 39°57' W 075°08'0 0.0
2015-Aug-24 23:34N 39°57' W 075°08'0 0.0
2015-Aug-24 22:34N 39°57' W 075°08'0 0.0
2015-Aug-24 21:33N 39°57' W 075°08'4 3.9
2015-Aug-24 20:34N 39°53' W 075°08'9 9.0
2015-Aug-24 19:34N 39°51' W 075°19'3 2.5
2015-Aug-24 18:34N 39°51' W 075°16'2 1.6
2015-Aug-24 17:34N 39°51' W 075°14'0 0.0
2015-Aug-24 16:34N 39°51' W 075°14'0 0.0
2015-Aug-24 15:34N 39°51' W 075°14'0 0.0
2015-Aug-24 14:33N 39°51' W 075°14'0 0.0
2015-Aug-24 13:34N 39°51' W 075°14'0 0.4
2015-Aug-24 12:34N 39°51' W 075°14'0 0.0
2015-Aug-24 11:34N 39°51' W 075°14'0 0.0
2015-Aug-24 10:34N 39°51' W 075°14'0 0.0
2015-Aug-24 09:33N 39°51' W 075°14'0 0.0
2015-Aug-24 08:34N 39°51' W 075°14'0 0.0
2015-Aug-24 07:33N 39°51' W 075°14'0 0.0
2015-Aug-24 06:33N 39°51' W 075°14'0 0.0
2015-Aug-24 05:34N 39°51' W 075°14'0 0.0
2015-Aug-24 04:34N 39°51' W 075°14'0 0.0
2015-Aug-24 03:34N 39°51' W 075°14'0 0.0
2015-Aug-24 02:33N 39°51' W 075°14'0 0.0
2015-Aug-24 01:34N 39°51' W 075°14'7 6.5
2015-Aug-24 00:34N 39°50' W 075°22'0 0.3
2015-Aug-23 23:34N 39°50' W 075°22'4 4.4
2015-Aug-23 22:34N 39°47' W 075°27'8 8.0
2015-Aug-23 21:34N 39°40' W 075°32'7 7.0
2015-Aug-23 20:34N 39°33' W 075°32'7 7.4
2015-Aug-23 19:34N 39°26' W 075°32'8 8.2
2015-Aug-23 18:34N 39°20' W 075°25'8 7.8
2015-Aug-23 17:34N 39°14' W 075°18'15 7.4
2015-Aug-23 15:33N 39°01' W 075°09'7 7.0
2015-Aug-23 14:33N 38°54' W 075°05'6 6.1
2015-Aug-23 13:34N 38°49' W 075°02'6 6.2
2015-Aug-23 12:33N 38°49' W 074°54'7 6.4
2015-Aug-23 11:31N 38°54' W 074°48'7 6.9
2015-Aug-23 10:33N 38°60' W 074°44'7 6.9
2015-Aug-23 09:33N 39°06' W 074°40'28 6.9
2015-Aug-23 05:32N 39°26' W 074°15'7 7.0
2015-Aug-23 04:33N 39°32' W 074°11'  

Dump ship's entire track history